Time;durP1;ratioP1;P1;durP2;ratioP2;P2;SDS_P1;SDS_P2;PMS_P1;PMS_P2;Temp;Humidity;BMP_temperature;BMP_pressure;BME280_temperature;BME280_humidity;BME280_pressure;Samples;Min_cycle;Max_cycle;Signal;HPM_P1;HPM_P2
2023/03/19 00:00:10;;;;;;;;;;;;;;;5.09;53.32;100280.66;5092135;28;19948;-37
2023/03/19 00:02:36;;;;;;;;;;;;;;;4.81;54.37;100283.41;5091896;28;19923;-38
2023/03/19 00:05:01;;;;;;;;;;;;;;;4.64;55.23;100286.88;5091839;28;19912;-37
2023/03/19 00:07:26;;;;;;;;;;;;;;;4.67;55.32;100292.69;5091877;28;20011;-37
2023/03/19 00:09:52;;;;;;;;;;;;;;;4.80;55.56;100294.13;5091760;28;20239;-37
2023/03/19 00:12:17;;;;;;;;;;;;;;;4.79;55.73;100295.91;5091406;28;19955;-37
2023/03/19 00:14:42;;;;;;;;;;;;;;;5.15;54.35;100290.56;5091619;28;19966;-37
2023/03/19 00:17:08;;;;;;;;;;;;;;;5.05;54.44;100282.75;5091700;28;19912;-36
2023/03/19 00:19:33;;;;;;;;;;;;;;;4.97;54.52;100287.13;5091444;28;20344;-37
2023/03/19 00:21:58;;;;;;;;;;;;;;;5.15;54.14;100282.66;5091148;28;19924;-37
2023/03/19 00:24:24;;;;;;;;;;;;;;;4.96;54.49;100278.41;5090900;28;19974;-37
2023/03/19 00:26:49;;;;;;;;;;;;;;;4.72;55.44;100272.94;5091264;28;20371;-37
2023/03/19 00:29:15;;;;;;;;;;;;;;;4.72;55.76;100275.56;5090893;28;19926;-37
2023/03/19 00:31:40;;;;;;;;;;;;;;;4.24;56.61;100269.72;5091269;28;19919;-36
2023/03/19 00:34:07;;;;;;;;;;;;;;;4.46;56.25;100257.91;5091206;28;19969;-36
2023/03/19 00:36:32;;;;;;;;;;;;;;;4.09;57.13;100264.13;5091031;28;20478;-36
2023/03/19 00:38:57;;;;;;;;;;;;;;;4.43;56.53;100260.84;5091223;28;19912;-37
2023/03/19 00:41:23;;;;;;;;;;;;;;;4.65;55.84;100252.47;5091216;28;19916;-37
2023/03/19 00:43:52;;;;;;;;;;;;;;;4.76;55.04;100255.81;5091108;28;19916;-37
2023/03/19 00:46:18;;;;;;;;;;;;;;;4.76;55.09;100246.13;5091198;28;19912;-37
2023/03/19 00:48:43;;;;;;;;;;;;;;;4.35;56.21;100247.59;5090929;28;19912;-37
2023/03/19 00:51:09;;;;;;;;;;;;;;;4.31;56.34;100247.06;5091222;28;20249;-37
2023/03/19 00:53:38;;;;;;;;;;;;;;;4.00;57.06;100244.78;5090899;28;19912;-37
2023/03/19 00:56:04;;;;;;;;;;;;;;;3.94;56.70;100244.53;5090676;28;20384;-37
2023/03/19 00:58:29;;;;;;;;;;;;;;;3.90;57.00;100238.72;5090989;28;19912;-35
2023/03/19 01:00:55;;;;;;;;;;;;;;;4.22;56.53;100240.06;5090759;28;20303;-37
2023/03/19 01:03:21;;;;;;;;;;;;;;;4.06;56.49;100246.81;5091215;28;19927;-35
2023/03/19 01:05:47;;;;;;;;;;;;;;;4.07;56.78;100250.28;5090850;28;20394;-35
2023/03/19 01:08:13;;;;;;;;;;;;;;;4.11;56.72;100246.34;5090892;28;20282;-38
2023/03/19 01:10:38;;;;;;;;;;;;;;;4.39;56.01;100239.22;5090653;28;19962;-36
2023/03/19 01:13:04;;;;;;;;;;;;;;;4.28;56.11;100237.66;5091019;28;19912;-36
2023/03/19 01:15:29;;;;;;;;;;;;;;;4.53;55.52;100240.47;5091061;28;20325;-36
2023/03/19 01:17:54;;;;;;;;;;;;;;;4.54;55.60;100234.25;5090521;28;19966;-36
2023/03/19 01:20:22;;;;;;;;;;;;;;;4.48;55.42;100232.22;5090621;28;20550;-36
2023/03/19 01:22:48;;;;;;;;;;;;;;;4.41;55.41;100237.25;5090172;28;19963;-36
2023/03/19 01:25:13;;;;;;;;;;;;;;;4.54;54.83;100242.16;5090235;28;19959;-36
2023/03/19 01:27:39;;;;;;;;;;;;;;;4.48;55.62;100235.69;5090309;28;19974;-36
2023/03/19 01:30:05;;;;;;;;;;;;;;;4.50;55.08;100239.00;5090382;28;19912;-37
2023/03/19 01:32:30;;;;;;;;;;;;;;;4.15;56.45;100237.19;5090294;28;19912;-37
2023/03/19 01:34:55;;;;;;;;;;;;;;;3.86;57.86;100240.81;5090397;28;19919;-37
2023/03/19 01:37:20;;;;;;;;;;;;;;;4.06;57.45;100238.09;5093389;28;19960;-36
2023/03/19 01:39:46;;;;;;;;;;;;;;;4.01;57.19;100238.53;5094364;28;19916;-37
2023/03/19 01:42:12;;;;;;;;;;;;;;;4.19;57.08;100237.69;5093983;28;19912;-37
2023/03/19 01:44:38;;;;;;;;;;;;;;;4.30;57.03;100240.97;5094388;28;19920;-36
2023/03/19 01:47:06;;;;;;;;;;;;;;;4.36;56.76;100242.19;5094153;28;19977;-36
2023/03/19 01:49:32;;;;;;;;;;;;;;;4.37;56.66;100235.91;5094523;28;19916;-36
2023/03/19 01:51:58;;;;;;;;;;;;;;;3.82;57.94;100236.00;5094531;28;19916;-37
2023/03/19 01:54:24;;;;;;;;;;;;;;;4.08;57.83;100236.97;5094464;28;19912;-36
2023/03/19 01:57:04;;;;;;;;;;;;;;;4.31;56.98;100237.34;5094094;28;19912;-37
2023/03/19 01:59:41;;;;;;;;;;;;;;;3.97;57.69;100231.06;5094120;28;20356;-37
2023/03/19 02:02:25;;;;;;;;;;;;;;;4.23;56.82;100247.00;5094115;28;19913;-37
2023/03/19 02:04:55;;;;;;;;;;;;;;;4.62;56.06;100250.13;5094498;28;20364;-36
2023/03/19 02:07:21;;;;;;;;;;;;;;;4.57;55.43;100246.28;5094685;28;20257;-36
2023/03/19 02:09:46;;;;;;;;;;;;;;;4.86;55.29;100253.94;5093150;28;19912;-37
2023/03/19 02:12:11;;;;;;;;;;;;;;;4.79;55.08;100251.06;5094672;28;19912;-36
2023/03/19 02:14:37;;;;;;;;;;;;;;;4.65;55.23;100249.81;5094799;28;19916;-36
2023/03/19 02:17:02;;;;;;;;;;;;;;;4.77;54.65;100254.84;5094671;28;19916;-36
2023/03/19 02:19:51;;;;;;;;;;;;;;;5.08;53.85;100257.88;5094389;28;20438;-36
2023/03/19 02:22:20;;;;;;;;;;;;;;;5.20;53.45;100261.09;5088922;28;19916;-37
2023/03/19 02:24:52;;;;;;;;;;;;;;;4.95;53.87;100265.34;5094227;28;19931;-37
2023/03/19 02:27:17;;;;;;;;;;;;;;;4.84;53.96;100272.56;5094252;28;19935;-37
2023/03/19 02:29:42;;;;;;;;;;;;;;;4.76;54.04;100272.50;5094340;28;19943;-42
2023/03/19 02:32:08;;;;;;;;;;;;;;;4.87;53.69;100269.63;5093447;28;20504;-42
2023/03/19 02:34:35;;;;;;;;;;;;;;;4.95;53.56;100270.63;5094510;28;19912;-42
2023/03/19 02:37:04;;;;;;;;;;;;;;;5.04;52.98;100283.72;5094165;28;20391;-42
2023/03/19 02:39:32;;;;;;;;;;;;;;;5.15;52.63;100277.38;5094127;28;20416;-42
2023/03/19 02:41:58;;;;;;;;;;;;;;;5.18;53.14;100281.50;5093826;28;19916;-42
2023/03/19 02:44:23;;;;;;;;;;;;;;;5.26;52.80;100286.84;5093884;28;19912;-42
2023/03/19 02:46:49;;;;;;;;;;;;;;;5.48;52.63;100285.47;5093743;28;20456;-42
2023/03/19 02:49:14;;;;;;;;;;;;;;;5.66;51.93;100286.25;5093753;28;19912;-42
2023/03/19 02:51:40;;;;;;;;;;;;;;;5.38;52.32;100277.69;5093853;28;19955;-42
2023/03/19 02:54:06;;;;;;;;;;;;;;;5.27;53.21;100280.56;5093717;28;20416;-42
2023/03/19 02:56:31;;;;;;;;;;;;;;;5.27;52.99;100280.56;5093889;28;20364;-42
2023/03/19 02:58:56;;;;;;;;;;;;;;;6.11;50.56;100276.38;5093480;28;20357;-42
2023/03/19 03:01:21;;;;;;;;;;;;;;;5.89;51.08;100275.09;5093700;28;19916;-42
2023/03/19 03:03:47;;;;;;;;;;;;;;;5.21;52.10;100282.03;5093888;28;20366;-42
2023/03/19 03:06:13;;;;;;;;;;;;;;;5.53;51.97;100274.47;5093438;28;19912;-42
2023/03/19 03:08:38;;;;;;;;;;;;;;;5.44;52.14;100284.97;5093412;28;19970;-42
2023/03/19 03:11:03;;;;;;;;;;;;;;;5.51;52.23;100273.78;5092613;28;19919;-42
2023/03/19 03:13:28;;;;;;;;;;;;;;;5.10;53.27;100282.28;5093442;28;20347;-42
2023/03/19 03:15:54;;;;;;;;;;;;;;;5.42;52.22;100289.56;5093562;28;19918;-42
2023/03/19 03:18:19;;;;;;;;;;;;;;;5.84;50.85;100280.03;5093097;28;19994;-42
2023/03/19 03:20:44;;;;;;;;;;;;;;;5.48;51.64;100280.19;5093108;28;20371;-42
2023/03/19 03:23:10;;;;;;;;;;;;;;;5.39;51.71;100289.09;5093605;28;19942;-42
2023/03/19 03:25:35;;;;;;;;;;;;;;;5.16;52.28;100286.97;5093429;28;19916;-42
2023/03/19 03:28:01;;;;;;;;;;;;;;;5.08;52.39;100281.59;5092947;28;19920;-42
2023/03/19 03:30:26;;;;;;;;;;;;;;;5.09;52.36;100292.00;5092931;28;20019;-42
2023/03/19 03:32:51;;;;;;;;;;;;;;;5.58;51.66;100290.63;5093038;28;19912;-42
2023/03/19 03:35:20;;;;;;;;;;;;;;;5.50;51.64;100291.44;5093028;28;19939;-42
2023/03/19 03:37:46;;;;;;;;;;;;;;;5.45;52.34;100293.72;5092873;28;19916;-42
2023/03/19 03:40:13;;;;;;;;;;;;;;;5.28;52.37;100292.81;5092832;28;20033;-42
2023/03/19 03:42:38;;;;;;;;;;;;;;;5.64;51.35;100295.31;5092750;28;19920;-42
2023/03/19 03:45:03;;;;;;;;;;;;;;;5.74;50.78;100293.38;5092661;28;20372;-41
2023/03/19 03:47:29;;;;;;;;;;;;;;;5.78;50.77;100299.97;5092925;28;19919;-41
2023/03/19 03:49:54;;;;;;;;;;;;;;;5.58;51.31;100298.56;5092978;28;19916;-42
2023/03/19 03:52:20;;;;;;;;;;;;;;;5.66;51.26;100301.25;5092475;28;19937;-42
2023/03/19 03:54:45;;;;;;;;;;;;;;;5.60;51.76;100300.06;5092417;28;20344;-42
2023/03/19 03:57:11;;;;;;;;;;;;;;;5.46;52.11;100296.22;5092444;28;19919;-42
2023/03/19 03:59:36;;;;;;;;;;;;;;;5.70;51.97;100299.97;5091955;28;19919;-41
2023/03/19 04:02:02;;;;;;;;;;;;;;;6.11;50.41;100307.22;5092189;28;20014;-41
2023/03/19 04:04:28;;;;;;;;;;;;;;;6.12;50.33;100300.97;5092411;28;19923;-41
2023/03/19 04:06:53;;;;;;;;;;;;;;;5.61;51.41;100296.44;5092267;28;19912;-41
2023/03/19 04:09:19;;;;;;;;;;;;;;;5.71;51.36;100304.22;5092366;28;19947;-41
2023/03/19 04:11:44;;;;;;;;;;;;;;;6.19;50.42;100307.28;5092064;28;20372;-41
2023/03/19 04:14:10;;;;;;;;;;;;;;;6.02;50.26;100309.84;5092374;28;19916;-41
2023/03/19 04:16:35;;;;;;;;;;;;;;;5.89;50.20;100304.16;5092567;28;19962;-42
2023/03/19 04:19:01;;;;;;;;;;;;;;;5.91;50.24;100310.13;5091883;28;19912;-41
2023/03/19 04:21:27;;;;;;;;;;;;;;;5.55;51.41;100301.53;5091926;28;19950;-42
2023/03/19 04:23:52;;;;;;;;;;;;;;;5.49;51.67;100303.81;5091412;28;20402;-42
2023/03/19 04:26:18;;;;;;;;;;;;;;;5.90;50.74;100303.16;5091058;28;20006;-41
2023/03/19 04:28:43;;;;;;;;;;;;;;;5.89;50.54;100301.53;5091450;28;19912;-41
2023/03/19 04:31:09;;;;;;;;;;;;;;;5.15;51.46;100310.84;5091153;28;20028;-41
2023/03/19 04:33:35;;;;;;;;;;;;;;;5.35;52.01;100309.69;5091152;28;20276;-41
2023/03/19 04:36:00;;;;;;;;;;;;;;;5.63;51.40;100312.94;5090928;28;19962;-41
2023/03/19 04:38:26;;;;;;;;;;;;;;;5.48;50.86;100314.53;5091162;28;19920;-41
2023/03/19 04:40:52;;;;;;;;;;;;;;;5.42;51.53;100315.16;5090897;28;19920;-42
2023/03/19 04:43:17;;;;;;;;;;;;;;;5.66;51.05;100314.47;5090981;28;20387;-42
2023/03/19 04:45:42;;;;;;;;;;;;;;;5.42;51.85;100308.06;5091081;28;19912;-41
2023/03/19 04:48:08;;;;;;;;;;;;;;;5.54;51.39;100307.78;5090850;28;19912;-42
2023/03/19 04:50:33;;;;;;;;;;;;;;;5.52;51.36;100313.25;5091141;28;19919;-41
2023/03/19 04:52:59;;;;;;;;;;;;;;;5.62;51.52;100308.66;5091316;28;20390;-41
2023/03/19 04:55:24;;;;;;;;;;;;;;;5.79;50.77;100306.13;5091355;28;20383;-41
2023/03/19 04:57:50;;;;;;;;;;;;;;;5.69;50.73;100316.78;5090849;28;19918;-42
2023/03/19 05:00:16;;;;;;;;;;;;;;;5.64;50.99;100311.97;5090676;28;19912;-42
2023/03/19 05:02:42;;;;;;;;;;;;;;;5.60;50.43;100313.28;5090663;28;19916;-42
2023/03/19 05:05:08;;;;;;;;;;;;;;;5.48;50.95;100320.66;5090396;28;20165;-42
2023/03/19 05:07:33;;;;;;;;;;;;;;;5.99;50.11;100328.66;5090977;28;19916;-42
2023/03/19 05:09:58;;;;;;;;;;;;;;;5.83;49.77;100323.28;5090370;28;20393;-42
2023/03/19 05:12:24;;;;;;;;;;;;;;;4.86;52.78;100331.25;5089811;28;19912;-42
2023/03/19 05:14:50;;;;;;;;;;;;;;;4.85;52.88;100341.94;5090571;28;20010;-42
2023/03/19 05:17:15;;;;;;;;;;;;;;;5.56;51.20;100338.34;5090469;28;19965;-42
2023/03/19 05:19:40;;;;;;;;;;;;;;;6.02;49.77;100336.28;5090401;28;19920;-42
2023/03/19 05:22:05;;;;;;;;;;;;;;;6.01;49.31;100341.72;5090843;28;19920;-42
2023/03/19 05:24:31;;;;;;;;;;;;;;;6.07;49.61;100336.63;5025062;28;1854437;-42
2023/03/19 05:26:56;;;;;;;;;;;;;;;6.18;49.34;100337.31;5091614;28;19922;-42
2023/03/19 05:29:22;;;;;;;;;;;;;;;5.95;49.50;100337.91;5091546;28;19912;-42
2023/03/19 05:31:47;;;;;;;;;;;;;;;6.15;49.79;100335.00;5101554;28;20278;-42
2023/03/19 05:34:12;;;;;;;;;;;;;;;6.12;49.43;100335.34;5093792;28;19973;-42
2023/03/19 05:36:38;;;;;;;;;;;;;;;6.03;50.07;100335.28;5091129;28;19942;-42
2023/03/19 05:39:04;;;;;;;;;;;;;;;5.73;50.58;100341.91;5091506;28;19923;-42
2023/03/19 05:41:31;;;;;;;;;;;;;;;5.78;50.28;100341.41;5090935;28;19916;-42
2023/03/19 05:43:56;;;;;;;;;;;;;;;6.14;49.29;100347.38;5091400;28;19986;-41
2023/03/19 05:46:21;;;;;;;;;;;;;;;5.84;49.65;100346.88;5091045;28;19955;-42
2023/03/19 05:48:47;;;;;;;;;;;;;;;5.55;50.64;100355.16;5091107;28;19912;-41
2023/03/19 05:51:12;;;;;;;;;;;;;;;5.74;50.03;100355.94;5090938;28;19919;-42
2023/03/19 05:53:38;;;;;;;;;;;;;;;6.08;49.29;100358.59;5092725;28;19964;-36
2023/03/19 05:56:03;;;;;;;;;;;;;;;6.16;48.85;100358.63;5090700;28;19920;-36
2023/03/19 05:58:29;;;;;;;;;;;;;;;6.54;50.15;100363.53;5099100;28;19962;-36
2023/03/19 06:00:55;;;;;;;;;;;;;;;6.61;50.27;100361.91;5109734;28;19912;-37
2023/03/19 06:03:21;;;;;;;;;;;;;;;6.61;49.76;100373.31;5099804;28;19916;-37
2023/03/19 06:05:50;;;;;;;;;;;;;;;6.45;48.84;100373.25;5091326;28;19951;-42
2023/03/19 06:08:15;;;;;;;;;;;;;;;6.56;48.39;100375.59;5090789;28;19911;-36
2023/03/19 06:10:40;;;;;;;;;;;;;;;6.59;48.69;100377.94;5090919;28;19969;-36
2023/03/19 06:13:06;;;;;;;;;;;;;;;7.05;47.40;100374.84;5090848;28;19912;-36
2023/03/19 06:15:31;;;;;;;;;;;;;;;7.10;46.46;100375.19;5090883;28;19912;-37
2023/03/19 06:17:57;;;;;;;;;;;;;;;7.09;47.60;100383.28;5090765;28;19995;-35
2023/03/19 06:20:22;;;;;;;;;;;;;;;7.29;46.86;100383.75;5089235;28;19912;-36
2023/03/19 06:22:47;;;;;;;;;;;;;;;8.57;44.22;100381.09;5092399;28;19924;-37
2023/03/19 06:25:12;;;;;;;;;;;;;;;8.98;43.68;100383.47;5094594;28;19920;-36
2023/03/19 06:27:38;;;;;;;;;;;;;;;8.88;43.96;100375.75;5094442;28;19916;-36
2023/03/19 06:30:04;;;;;;;;;;;;;;;9.37;42.33;100375.34;5094669;28;19919;-37
2023/03/19 06:32:29;;;;;;;;;;;;;;;9.68;41.86;100370.91;5093999;28;20004;-36
2023/03/19 06:34:55;;;;;;;;;;;;;;;10.05;41.56;100375.31;5094034;28;19912;-36
2023/03/19 06:37:20;;;;;;;;;;;;;;;10.75;39.78;100373.06;5093889;28;19924;-37
2023/03/19 06:39:46;;;;;;;;;;;;;;;10.75;39.18;100368.56;5093695;28;20365;-36
2023/03/19 06:42:12;;;;;;;;;;;;;;;10.61;39.21;100366.78;5093908;28;20319;-36
2023/03/19 06:44:37;;;;;;;;;;;;;;;10.87;39.26;100370.72;5093789;28;19923;-36
2023/03/19 06:47:02;;;;;;;;;;;;;;;11.63;39.78;100370.97;5094086;28;19920;-36
2023/03/19 06:49:27;;;;;;;;;;;;;;;11.94;37.45;100364.41;5102057;28;19958;-36
2023/03/19 06:51:53;;;;;;;;;;;;;;;12.08;37.59;100360.75;5100320;28;19912;-36
2023/03/19 06:54:18;;;;;;;;;;;;;;;12.23;37.64;100368.63;5096485;28;19947;-36
2023/03/19 06:56:43;;;;;;;;;;;;;;;12.58;36.89;100357.03;5093398;28;19916;-35
2023/03/19 06:59:11;;;;;;;;;;;;;;;12.63;36.54;100360.75;5093407;28;19912;-37
2023/03/19 07:01:37;;;;;;;;;;;;;;;12.88;35.64;100363.69;5093434;28;19912;-37
2023/03/19 07:04:02;;;;;;;;;;;;;;;12.65;36.08;100365.91;5093480;28;20607;-37
2023/03/19 07:06:28;;;;;;;;;;;;;;;13.11;35.63;100357.94;5093279;28;20367;-36
2023/03/19 07:08:55;;;;;;;;;;;;;;;13.48;34.72;100357.56;5093052;28;20439;-36
2023/03/19 07:11:20;;;;;;;;;;;;;;;14.17;33.55;100356.16;5093374;28;19935;-36
2023/03/19 07:13:45;;;;;;;;;;;;;;;13.73;33.83;100356.88;5093585;28;20245;-36
2023/03/19 07:16:11;;;;;;;;;;;;;;;13.40;34.12;100355.09;5093846;28;19912;-36
2023/03/19 07:18:36;;;;;;;;;;;;;;;13.50;34.90;100350.16;5093475;28;19974;-36
2023/03/19 07:21:02;;;;;;;;;;;;;;;13.09;35.20;100348.50;5102017;28;19919;-36
2023/03/19 07:23:27;;;;;;;;;;;;;;;13.67;34.63;100348.69;5093143;28;19966;-36
2023/03/19 07:25:52;;;;;;;;;;;;;;;14.06;33.54;100348.78;5092861;28;19912;-36
2023/03/19 07:28:18;;;;;;;;;;;;;;;14.33;32.53;100346.00;5093095;28;19923;-36
2023/03/19 07:30:43;;;;;;;;;;;;;;;14.83;31.70;100332.72;5092729;28;19912;-36
2023/03/19 07:33:08;;;;;;;;;;;;;;;15.20;31.64;100344.41;5093407;28;19912;-36
2023/03/19 07:35:34;;;;;;;;;;;;;;;15.10;31.05;100344.09;5092148;28;19912;-36
2023/03/19 07:38:01;;;;;;;;;;;;;;;15.58;31.31;100348.81;5093010;28;20003;-37
2023/03/19 07:40:26;;;;;;;;;;;;;;;15.67;30.00;100345.81;5092911;28;19912;-36
2023/03/19 07:42:52;;;;;;;;;;;;;;;15.73;30.84;100336.91;5092475;28;19923;-37
2023/03/19 07:45:17;;;;;;;;;;;;;;;15.74;30.75;100339.38;5092624;28;19943;-36
2023/03/19 07:47:42;;;;;;;;;;;;;;;16.27;30.48;100343.31;5092781;28;19919;-36
2023/03/19 07:50:08;;;;;;;;;;;;;;;16.19;30.11;100340.94;5093002;28;19920;-37
2023/03/19 07:52:34;;;;;;;;;;;;;;;16.58;29.23;100333.38;5092287;28;19912;-36
2023/03/19 07:54:59;;;;;;;;;;;;;;;16.36;30.57;100333.91;5073862;28;20399;-36
2023/03/19 07:57:25;;;;;;;;;;;;;;;16.07;30.95;100337.38;5092219;28;20328;-37
2023/03/19 07:59:50;;;;;;;;;;;;;;;16.32;35.30;100346.16;5092740;28;19912;-36
2023/03/19 08:02:16;;;;;;;;;;;;;;;16.96;30.31;100334.91;5092276;28;19915;-36
2023/03/19 08:04:41;;;;;;;;;;;;;;;17.69;30.37;100332.84;5091790;28;20420;-35
2023/03/19 08:07:09;;;;;;;;;;;;;;;18.17;27.88;100337.91;5092474;28;19955;-37
2023/03/19 08:09:34;;;;;;;;;;;;;;;18.46;30.01;100332.53;5092430;28;20372;-36
2023/03/19 08:11:59;;;;;;;;;;;;;;;17.61;28.72;100323.28;5092177;28;19919;-36
2023/03/19 08:14:25;;;;;;;;;;;;;;;17.25;31.46;100325.16;5091926;28;19991;-35
2023/03/19 08:16:50;;;;;;;;;;;;;;;17.63;28.37;100317.63;5092629;28;19948;-36
2023/03/19 08:19:16;;;;;;;;;;;;;;;18.20;29.92;100322.31;5092080;28;19916;-38
2023/03/19 08:21:41;;;;;;;;;;;;;;;18.84;27.71;100309.50;5091608;28;20013;-37
2023/03/19 08:24:07;;;;;;;;;;;;;;;18.82;27.31;100318.91;5091370;28;19924;-37
2023/03/19 08:26:32;;;;;;;;;;;;;;;18.94;27.20;100314.25;5092494;28;19915;-37
2023/03/19 08:28:58;;;;;;;;;;;;;;;18.86;26.49;100306.56;5092146;28;19919;-36
2023/03/19 08:31:23;;;;;;;;;;;;;;;18.83;31.20;100309.75;5091952;28;20002;-36
2023/03/19 08:33:48;;;;;;;;;;;;;;;19.23;27.04;100309.59;5091912;28;19921;-36
2023/03/19 08:36:14;;;;;;;;;;;;;;;18.68;27.24;100307.59;5091703;28;20241;-37
2023/03/19 08:38:39;;;;;;;;;;;;;;;18.15;27.71;100301.50;5091733;28;19996;-37
2023/03/19 08:41:05;;;;;;;;;;;;;;;18.17;26.66;100296.69;5091204;28;19969;-36
2023/03/19 08:43:31;;;;;;;;;;;;;;;18.07;28.39;100291.13;5091304;28;19919;-36
2023/03/19 08:45:56;;;;;;;;;;;;;;;18.35;27.39;100299.22;5091000;28;19995;-36
2023/03/19 08:48:22;;;;;;;;;;;;;;;18.27;26.47;100296.06;5091668;28;19922;-36
2023/03/19 08:50:57;;;;;;;;;;;;;;;18.51;27.33;100294.91;5091809;28;19912;-37
2023/03/19 08:53:23;;;;;;;;;;;;;;;19.01;26.77;100292.50;5091788;28;19912;-37
2023/03/19 08:55:52;;;;;;;;;;;;;;;19.47;26.59;100299.38;5091595;28;20136;-37
2023/03/19 08:58:17;;;;;;;;;;;;;;;19.71;24.55;100291.88;5091756;28;19999;-36
2023/03/19 09:00:43;;;;;;;;;;;;;;;19.26;25.59;100297.47;5091647;28;20366;-36
2023/03/19 09:03:08;;;;;;;;;;;;;;;19.08;27.35;100290.47;5091694;28;19934;-38
2023/03/19 09:05:34;;;;;;;;;;;;;;;19.07;25.93;100286.13;5091510;28;20390;-36
2023/03/19 09:08:00;;;;;;;;;;;;;;;19.36;28.29;100286.81;5090550;28;20276;-38
2023/03/19 09:10:25;;;;;;;;;;;;;;;20.19;23.95;100283.28;5091746;28;20402;-36
2023/03/19 09:12:51;;;;;;;;;;;;;;;19.76;24.09;100268.75;5091644;28;19912;-35
2023/03/19 09:15:16;;;;;;;;;;;;;;;19.29;24.44;100278.91;5091063;28;19919;-36
2023/03/19 09:17:41;;;;;;;;;;;;;;;19.23;24.63;100266.41;5090820;28;19917;-35
2023/03/19 09:20:07;;;;;;;;;;;;;;;19.33;24.07;100263.03;5091031;28;19912;-35
2023/03/19 09:22:33;;;;;;;;;;;;;;;19.62;24.83;100236.69;5090799;28;20016;-36
2023/03/19 09:24:58;;;;;;;;;;;;;;;19.53;26.37;100257.09;5091262;28;19924;-37
2023/03/19 09:27:23;;;;;;;;;;;;;;;19.97;24.13;100246.34;5091576;28;20361;-35
2023/03/19 09:29:49;;;;;;;;;;;;;;;20.45;25.97;100251.94;5090785;28;19977;-36
2023/03/19 09:32:14;;;;;;;;;;;;;;;20.17;24.17;100250.31;5091091;28;19919;-36
2023/03/19 09:34:40;;;;;;;;;;;;;;;19.80;25.04;100243.72;5090978;28;19912;-36
2023/03/19 09:37:05;;;;;;;;;;;;;;;19.40;26.01;100246.66;5090702;28;19912;-36
2023/03/19 09:39:31;;;;;;;;;;;;;;;19.21;27.06;100243.44;5090605;28;19924;-36
2023/03/19 09:42:02;;;;;;;;;;;;;;;19.20;26.75;100245.31;5090633;28;19919;-36
2023/03/19 09:44:34;;;;;;;;;;;;;;;19.26;25.28;100236.22;5090682;28;20064;-36
2023/03/19 09:47:20;;;;;;;;;;;;;;;18.72;26.46;100230.56;5090955;28;19912;-36
2023/03/19 09:49:47;;;;;;;;;;;;;;;19.12;26.12;100222.28;5082765;28;20363;-35
2023/03/19 09:52:15;;;;;;;;;;;;;;;19.82;25.71;100225.38;5090729;28;20407;-36
2023/03/19 09:54:47;;;;;;;;;;;;;;;19.71;27.08;100223.59;5090632;28;19916;-35
2023/03/19 09:57:13;;;;;;;;;;;;;;;19.33;26.16;100226.09;5091857;28;19981;-37
2023/03/19 09:59:38;;;;;;;;;;;;;;;19.52;26.95;100218.50;5093909;28;20022;-36
2023/03/19 10:02:03;;;;;;;;;;;;;;;19.47;29.24;100215.72;5103720;28;19916;-36
2023/03/19 10:04:38;;;;;;;;;;;;;;;19.49;27.84;100208.19;5104835;28;20372;-36
2023/03/19 10:07:33;;;;;;;;;;;;;;;19.79;28.11;100208.84;5098836;28;20296;-36
2023/03/19 10:09:58;;;;;;;;;;;;;;;19.45;29.52;100200.84;5089803;28;20011;-36
2023/03/19 10:12:26;;;;;;;;;;;;;;;20.26;27.24;100192.84;5099653;28;20028;-36
2023/03/19 10:15:00;;;;;;;;;;;;;;;20.95;28.57;100187.72;5101329;28;20387;-36
2023/03/19 10:17:31;;;;;;;;;;;;;;;20.92;25.42;100194.44;5104307;28;19916;-35
2023/03/19 10:20:05;;;;;;;;;;;;;;;21.60;26.75;100191.00;5100205;28;20359;-35
2023/03/19 10:22:50;;;;;;;;;;;;;;;21.32;24.56;100171.38;5096817;28;19948;-35
2023/03/19 10:25:21;;;;;;;;;;;;;;;22.31;27.97;100179.50;5093423;28;20308;-35
2023/03/19 10:27:49;;;;;;;;;;;;;;;22.65;24.69;100162.69;5093415;28;20027;-35
2023/03/19 10:30:15;;;;;;;;;;;;;;;23.45;25.82;100164.63;5093943;28;19919;-35
2023/03/19 10:32:42;;;;;;;;;;;;;;;23.96;22.51;100161.66;5093206;28;19912;-35
2023/03/19 10:35:27;;;;;;;;;;;;;;;24.10;22.71;100150.13;5093482;28;20010;-36
2023/03/19 10:37:54;;;;;;;;;;;;;;;21.60;24.58;100144.97;5093185;28;20399;-36
2023/03/19 10:40:23;;;;;;;;;;;;;;;20.91;25.26;100135.22;5093395;28;19918;-36
2023/03/19 10:43:00;;;;;;;;;;;;;;;19.92;27.34;100125.53;5093864;28;19912;-36
2023/03/19 10:45:28;;;;;;;;;;;;;;;20.53;26.13;100127.09;5093863;28;19999;-35
2023/03/19 10:47:55;;;;;;;;;;;;;;;21.91;25.58;100118.75;5093862;28;19916;-35
2023/03/19 10:50:40;;;;;;;;;;;;;;;21.00;25.50;100122.78;5092987;28;20294;-36
2023/03/19 10:53:12;;;;;;;;;;;;;;;22.10;24.91;100112.81;5091461;28;19912;-35
2023/03/19 10:55:37;;;;;;;;;;;;;;;21.37;25.84;100111.84;5091421;28;19916;-35
2023/03/19 10:58:26;;;;;;;;;;;;;;;22.77;24.70;100106.25;5091304;28;20011;-35
2023/03/19 11:00:55;;;;;;;;;;;;;;;22.35;24.64;100098.44;5085368;28;19912;-36
2023/03/19 11:03:35;;;;;;;;;;;;;;;22.90;24.22;100093.16;5092968;28;19912;-35
2023/03/19 11:06:21;;;;;;;;;;;;;;;22.78;24.02;100094.28;5091725;28;20361;-37
2023/03/19 11:08:50;;;;;;;;;;;;;;;23.20;24.07;100087.63;5091718;28;19918;-36
2023/03/19 11:11:23;;;;;;;;;;;;;;;23.41;23.67;100093.78;5092680;28;20003;-34
2023/03/19 11:13:49;;;;;;;;;;;;;;;23.55;23.03;100087.72;5092616;28;20388;-35
2023/03/19 11:16:14;;;;;;;;;;;;;;;23.51;23.06;100078.50;5092698;28;20007;-36
2023/03/19 11:18:40;;;;;;;;;;;;;;;23.56;23.65;100067.63;5092856;28;20023;-36
2023/03/19 11:21:08;;;;;;;;;;;;;;;23.72;22.81;100069.16;5092655;28;20007;-39
2023/03/19 11:23:38;;;;;;;;;;;;;;;24.09;22.35;100064.25;5092343;28;19963;-35
2023/03/19 11:26:04;;;;;;;;;;;;;;;24.02;22.97;100056.41;5092642;28;19912;-35
2023/03/19 11:28:32;;;;;;;;;;;;;;;24.01;22.92;100054.81;5092515;28;19993;-36
2023/03/19 11:30:57;;;;;;;;;;;;;;;23.44;23.34;100065.25;5092662;28;19912;-35
2023/03/19 11:33:40;;;;;;;;;;;;;;;23.27;23.94;100053.97;5092486;28;19942;-35
2023/03/19 11:36:09;;;;;;;;;;;;;;;22.31;24.51;100056.72;5092575;28;19918;-36
2023/03/19 11:38:45;;;;;;;;;;;;;;;22.42;25.04;100047.47;5092431;28;19916;-36
2023/03/19 11:41:10;;;;;;;;;;;;;;;22.71;24.98;100038.72;5092527;28;19912;-34
2023/03/19 11:43:44;;;;;;;;;;;;;;;23.76;23.83;100037.59;5092450;28;20414;-35
2023/03/19 11:46:20;;;;;;;;;;;;;;;24.78;22.60;100033.06;5091947;28;20365;-35
2023/03/19 11:48:56;;;;;;;;;;;;;;;24.17;22.71;100033.72;5092224;28;19913;-35
2023/03/19 11:51:44;;;;;;;;;;;;;;;23.36;24.38;100031.38;5092193;28;19918;-35
2023/03/19 11:54:28;;;;;;;;;;;;;;;24.36;23.31;100031.09;5091705;28;19927;-36
2023/03/19 11:57:01;;;;;;;;;;;;;;;23.17;24.14;100025.78;5092155;28;19915;-36
2023/03/19 11:59:31;;;;;;;;;;;;;;;23.15;24.82;100030.69;5091929;28;19912;-35
2023/03/19 12:02:15;;;;;;;;;;;;;;;23.83;23.76;100021.00;5092098;28;19983;-35
2023/03/19 12:04:40;;;;;;;;;;;;;;;22.28;25.47;100024.75;5091615;28;20356;-35
2023/03/19 12:07:05;;;;;;;;;;;;;;;22.11;25.93;100025.03;5092070;28;19943;-35
2023/03/19 12:09:48;;;;;;;;;;;;;;;23.25;24.91;100015.41;5091485;28;19955;-35
2023/03/19 12:12:16;;;;;;;;;;;;;;;24.52;23.66;100018.16;5091468;28;20029;-35
2023/03/19 12:15:02;;;;;;;;;;;;;;;25.24;22.78;100015.34;5091681;28;19918;-35
2023/03/19 12:17:49;;;;;;;;;;;;;;;25.64;22.17;100013.09;5091567;28;20376;-36
2023/03/19 12:20:33;;;;;;;;;;;;;;;25.74;22.03;100007.50;5091090;28;19919;-36
2023/03/19 12:23:14;;;;;;;;;;;;;;;25.07;22.85;100009.56;5091503;28;19920;-36
2023/03/19 12:25:39;;;;;;;;;;;;;;;25.11;22.85;100007.88;5091186;28;19954;-36
2023/03/19 12:28:07;;;;;;;;;;;;;;;25.51;22.37;100002.94;5091371;28;19955;-36
2023/03/19 12:30:58;;;;;;;;;;;;;;;25.69;21.75;100004.84;5091440;28;19920;-35
2023/03/19 12:33:24;;;;;;;;;;;;;;;25.83;21.77;100001.34;5091298;28;19952;-36
2023/03/19 12:35:52;;;;;;;;;;;;;;;25.13;22.18;99994.78;5091282;28;19939;-36
2023/03/19 12:38:22;;;;;;;;;;;;;;;24.92;22.67;99991.53;5091329;28;19912;-36
2023/03/19 12:40:51;;;;;;;;;;;;;;;24.92;22.88;99983.38;5090861;28;19919;-36
2023/03/19 12:43:17;;;;;;;;;;;;;;;25.35;22.56;99975.97;5091052;28;19920;-36